Birdseye, Indiana
Current Conditions -  °F | °C
As of 5:55 PM on Wednesday 26 Nov 2014 (Local Time) from KHNB Reporting Station
Clear Clear  
Wind Chill: 33°   Ceiling: Unl
Heat Index: 37°   Visibility: 10mi
Dew Point: 28°   Wind: 6mph
Humidity: 70%   Direction: 350°N
Pressure: 30.04"   Gusts: NA
Location:  38.32°N, 86.7°W
Report Text: KHNB 262355Z AUTO 35005KT 10SM CLR 03/M02 A3004 RMK AO1 10040 20020 52003
Loading
Personal Weather Stations






























Interactive Weather Map New forecast layout! Learn more

10-Day Weather Forecast

Advertisements
Track Severe Weather on mobile